createdAt,value
2022-07-29T00:02:26.634Z,42.17
2022-07-29T00:04:53.956Z,41.86
2022-07-29T00:07:21.235Z,41.96
2022-07-29T00:09:51.157Z,41.74
2022-07-29T00:12:25.576Z,42.31
2022-07-29T00:14:54.112Z,41.47
2022-07-29T00:17:21.366Z,41.70
2022-07-29T00:19:48.607Z,41.72
2022-07-29T00:22:15.854Z,41.47
2022-07-29T00:24:43.120Z,41.75
2022-07-29T00:27:10.371Z,42.42
2022-07-29T00:29:37.655Z,42.54
2022-07-29T00:32:04.951Z,43.35
2022-07-29T00:34:32.292Z,43.92
2022-07-29T00:36:59.561Z,44.72
2022-07-29T00:39:26.801Z,44.51
2022-07-29T00:41:54.800Z,43.86
2022-07-29T00:44:22.048Z,42.60
2022-07-29T00:46:49.379Z,42.18
2022-07-29T00:49:16.674Z,40.42
2022-07-29T00:51:44.130Z,39.15
2022-07-29T00:54:11.730Z,36.87
2022-07-29T00:56:39.088Z,37.14
2022-07-29T00:59:06.357Z,37.03
2022-07-29T01:01:33.635Z,36.06
2022-07-29T01:04:00.911Z,36.59
2022-07-29T01:06:28.177Z,37.75
2022-07-29T01:08:55.446Z,38.77
2022-07-29T01:11:22.682Z,40.71
2022-07-29T01:13:49.944Z,38.34
2022-07-29T01:16:17.263Z,38.05
2022-07-29T01:18:44.562Z,39.62
2022-07-29T01:21:11.819Z,42.79
2022-07-29T01:23:39.077Z,42.86
2022-07-29T01:26:06.319Z,42.09
2022-07-29T01:28:33.592Z,42.19
2022-07-29T01:31:00.858Z,42.10
2022-07-29T01:33:28.130Z,40.71
2022-07-29T01:35:55.443Z,40.46
2022-07-29T01:38:22.692Z,41.22
2022-07-29T01:40:49.950Z,41.14
2022-07-29T01:43:17.229Z,40.95
2022-07-29T01:45:44.484Z,40.62
2022-07-29T01:48:11.737Z,40.08
2022-07-29T01:50:38.968Z,40.52
2022-07-29T01:53:06.236Z,42.14
2022-07-29T01:55:33.480Z,41.69
2022-07-29T01:58:00.731Z,41.97
2022-07-29T02:00:27.986Z,42.42
2022-07-29T02:02:55.403Z,43.46
2022-07-29T02:05:22.907Z,43.93
2022-07-29T02:07:50.250Z,44.90
2022-07-29T02:10:17.489Z,45.43
2022-07-29T02:12:46.582Z,45.79
2022-07-29T02:15:18.319Z,46.45
2022-07-29T02:17:45.572Z,47.32
2022-07-29T02:20:12.826Z,48.82
2022-07-29T02:22:40.069Z,50.79
2022-07-29T02:25:07.340Z,53.60
2022-07-29T02:27:41.477Z,54.31
2022-07-29T02:30:08.754Z,54.53
2022-07-29T02:32:36.000Z,55.90
2022-07-29T02:35:03.240Z,57.84
2022-07-29T02:37:30.499Z,59.09
2022-07-29T02:39:57.779Z,59.09
2022-07-29T02:42:25.038Z,58.23
2022-07-29T02:44:52.322Z,59.18
2022-07-29T02:47:19.572Z,60.04
2022-07-29T02:49:46.808Z,60.26
2022-07-29T02:52:14.073Z,60.05
2022-07-29T02:54:41.333Z,59.87
2022-07-29T02:57:08.583Z,60.53
2022-07-29T02:59:35.848Z,60.63
2022-07-29T03:02:03.196Z,61.12
2022-07-29T03:04:30.505Z,60.62
2022-07-29T03:06:57.777Z,60.13
2022-07-29T03:09:25.063Z,60.32
2022-07-29T03:11:52.325Z,59.57
2022-07-29T03:14:19.986Z,60.16
2022-07-29T03:16:47.731Z,60.45
2022-07-29T03:19:14.983Z,60.04
2022-07-29T03:21:42.213Z,59.64
2022-07-29T03:24:10.774Z,59.76
2022-07-29T03:26:38.289Z,59.58
2022-07-29T03:29:05.532Z,59.45
2022-07-29T03:31:35.100Z,58.83
2022-07-29T03:34:02.370Z,59.59
2022-07-29T03:36:29.604Z,59.90
2022-07-29T03:38:56.882Z,60.17
2022-07-29T03:41:24.136Z,60.82
2022-07-29T03:43:51.383Z,61.31
2022-07-29T03:46:18.833Z,61.79
2022-07-29T03:48:46.237Z,61.62
2022-07-29T03:51:13.523Z,61.26
2022-07-29T03:53:40.884Z,61.47
2022-07-29T03:56:08.142Z,62.13
2022-07-29T03:58:35.390Z,61.18
2022-07-29T04:01:02.649Z,61.23
2022-07-29T04:03:29.946Z,60.14
2022-07-29T04:05:57.251Z,60.11
2022-07-29T04:08:24.548Z,60.36
2022-07-29T04:10:51.789Z,60.63
2022-07-29T04:13:38.997Z,60.34
2022-07-29T04:16:06.308Z,60.27
2022-07-29T04:18:33.569Z,59.79
2022-07-29T04:21:00.830Z,60.20
2022-07-29T04:23:28.166Z,60.73
2022-07-29T04:25:55.404Z,59.22
2022-07-29T04:28:22.644Z,56.64
2022-07-29T04:30:49.942Z,55.21
2022-07-29T04:33:17.198Z,53.19
2022-07-29T04:35:49.982Z,51.94
2022-07-29T04:38:17.998Z,50.20
2022-07-29T04:40:45.240Z,49.70
2022-07-29T04:43:13.191Z,47.60
2022-07-29T04:45:42.810Z,47.21
2022-07-29T04:48:10.066Z,48.24
2022-07-29T04:50:37.306Z,49.78
2022-07-29T04:53:04.609Z,48.06
2022-07-29T04:55:31.868Z,50.19
2022-07-29T04:57:59.112Z,49.06
2022-07-29T05:00:33.374Z,47.14
2022-07-29T05:03:01.153Z,47.80
2022-07-29T05:05:28.494Z,48.11
2022-07-29T05:07:55.785Z,48.57
2022-07-29T05:10:23.033Z,50.20
2022-07-29T05:15:17.351Z,50.47
2022-07-29T05:17:44.635Z,50.13
2022-07-29T05:20:11.870Z,55.58
2022-07-29T05:22:39.147Z,54.17
2022-07-29T05:25:09.114Z,56.66
2022-07-29T05:27:36.578Z,54.54
2022-07-29T05:30:03.817Z,52.38
2022-07-29T05:32:31.088Z,52.09
2022-07-29T05:34:58.328Z,54.30
2022-07-29T05:37:25.606Z,51.64
2022-07-29T05:39:56.545Z,51.11
2022-07-29T05:42:24.589Z,51.01
2022-07-29T05:44:51.867Z,48.23
2022-07-29T05:47:19.237Z,48.90
2022-07-29T05:49:46.483Z,48.86
2022-07-29T05:52:13.715Z,48.16
2022-07-29T05:54:41.015Z,47.68
2022-07-29T05:57:08.261Z,48.03
2022-07-29T05:59:35.501Z,48.71
2022-07-29T06:02:02.784Z,49.84
2022-07-29T06:04:30.074Z,50.47
2022-07-29T06:06:57.369Z,48.49
2022-07-29T06:09:24.640Z,50.85
2022-07-29T06:11:51.884Z,52.45
2022-07-29T06:14:19.665Z,52.44
2022-07-29T06:16:47.099Z,51.50
2022-07-29T06:19:14.418Z,52.14
2022-07-29T06:21:42.027Z,50.23
2022-07-29T06:24:09.484Z,50.48
2022-07-29T06:26:39.629Z,50.59
2022-07-29T06:29:07.200Z,50.09
2022-07-29T06:31:34.447Z,52.63
2022-07-29T06:34:01.699Z,50.91
2022-07-29T06:36:28.974Z,52.72
2022-07-29T06:38:56.223Z,53.32
2022-07-29T06:41:23.733Z,54.31
2022-07-29T06:43:54.375Z,54.48
2022-07-29T06:46:22.569Z,57.18
2022-07-29T06:48:50.177Z,59.83
2022-07-29T06:51:22.908Z,58.17
2022-07-29T06:53:59.822Z,57.75
2022-07-29T06:56:30.314Z,55.03
2022-07-29T06:58:57.556Z,56.17
2022-07-29T07:01:24.882Z,54.78
2022-07-29T07:03:52.508Z,52.42
2022-07-29T07:06:19.758Z,52.78
2022-07-29T07:08:47.010Z,53.28
2022-07-29T07:11:14.431Z,52.78
2022-07-29T07:13:41.674Z,52.76
2022-07-29T07:16:09.122Z,54.98
2022-07-29T07:18:36.502Z,56.29
2022-07-29T07:21:03.744Z,55.62
2022-07-29T07:23:30.992Z,56.38
2022-07-29T07:25:58.359Z,56.54
2022-07-29T07:28:25.597Z,54.83
2022-07-29T07:30:53.019Z,52.95
2022-07-29T07:33:20.385Z,50.49
2022-07-29T07:35:47.657Z,48.69
2022-07-29T07:38:14.900Z,47.94
2022-07-29T07:40:42.166Z,47.46
2022-07-29T07:43:09.417Z,47.18
2022-07-29T07:45:36.725Z,47.89
2022-07-29T07:48:04.026Z,46.01
2022-07-29T07:50:31.274Z,47.33
2022-07-29T07:52:58.924Z,45.34
2022-07-29T07:55:26.324Z,45.96
2022-07-29T07:57:53.568Z,45.37
2022-07-29T08:00:22.936Z,45.17
2022-07-29T08:02:51.538Z,43.29
2022-07-29T08:05:18.967Z,44.42
2022-07-29T08:07:46.236Z,43.25
2022-07-29T08:10:13.499Z,41.00
2022-07-29T08:12:40.738Z,39.52
2022-07-29T08:15:07.997Z,40.97
2022-07-29T08:17:35.612Z,42.73
2022-07-29T08:20:02.939Z,41.58
2022-07-29T08:22:30.248Z,41.09
2022-07-29T08:24:57.495Z,42.01
2022-07-29T08:27:43.027Z,39.90
2022-07-29T08:30:11.424Z,40.11
2022-07-29T08:32:53.727Z,40.18
2022-07-29T08:35:21.988Z,38.94
2022-07-29T08:37:49.332Z,37.12
2022-07-29T08:40:16.656Z,37.66
2022-07-29T08:42:43.905Z,36.94
2022-07-29T08:45:11.257Z,37.51
2022-07-29T08:47:38.539Z,38.31
2022-07-29T08:50:05.789Z,37.85
2022-07-29T08:52:33.066Z,37.45
2022-07-29T08:55:00.312Z,35.03
2022-07-29T08:57:27.634Z,36.61
2022-07-29T08:59:54.993Z,36.16
2022-07-29T09:02:22.244Z,36.67
2022-07-29T09:04:49.495Z,35.33
2022-07-29T09:07:16.782Z,37.57
2022-07-29T09:09:44.038Z,35.56
2022-07-29T09:12:11.311Z,36.49
2022-07-29T09:14:38.590Z,37.54
2022-07-29T09:17:06.364Z,36.26
2022-07-29T09:19:33.964Z,37.06
2022-07-29T09:22:03.501Z,38.00
2022-07-29T09:24:31.192Z,39.39
2022-07-29T09:26:58.443Z,39.29
2022-07-29T09:29:25.679Z,37.66
2022-07-29T09:31:55.927Z,37.03
2022-07-29T09:34:23.332Z,38.46
2022-07-29T09:36:50.603Z,37.89
2022-07-29T09:39:17.995Z,37.77
2022-07-29T09:41:49.366Z,37.70
2022-07-29T09:44:16.605Z,38.55
2022-07-29T09:46:43.929Z,38.75
2022-07-29T09:49:11.957Z,37.54
2022-07-29T09:51:39.367Z,39.55
2022-07-29T09:54:06.608Z,40.52
2022-07-29T09:56:33.878Z,40.47
2022-07-29T09:59:01.146Z,39.37
2022-07-29T10:01:28.453Z,40.21
2022-07-29T10:03:55.767Z,38.78
2022-07-29T10:06:23.004Z,39.56
2022-07-29T10:08:50.245Z,39.40
2022-07-29T10:11:19.515Z,40.63
2022-07-29T10:13:46.770Z,40.57
2022-07-29T10:16:14.283Z,40.95
2022-07-29T10:18:41.603Z,40.92
2022-07-29T10:21:09.058Z,41.63
2022-07-29T10:23:47.029Z,42.23
2022-07-29T10:26:14.713Z,44.29
2022-07-29T10:28:41.992Z,44.85
2022-07-29T10:31:10.438Z,43.86
2022-07-29T10:33:37.723Z,43.73
2022-07-29T10:36:04.978Z,42.37
2022-07-29T10:38:32.217Z,42.51
2022-07-29T10:40:59.473Z,37.72
2022-07-29T10:43:27.159Z,38.48
2022-07-29T10:45:57.246Z,37.50
2022-07-29T10:48:24.968Z,37.31
2022-07-29T10:50:52.204Z,37.08
2022-07-29T10:53:21.472Z,36.99
2022-07-29T10:55:49.697Z,37.84
2022-07-29T10:58:17.891Z,37.93
2022-07-29T11:00:45.650Z,37.90
2022-07-29T11:03:13.152Z,37.89
2022-07-29T11:05:40.724Z,38.29
2022-07-29T11:08:10.713Z,38.02
2022-07-29T11:10:46.714Z,38.33
2022-07-29T11:13:15.159Z,39.98
2022-07-29T11:15:44.455Z,40.28
2022-07-29T11:18:15.170Z,41.67
2022-07-29T11:20:44.719Z,43.65
2022-07-29T11:23:11.972Z,48.39
2022-07-29T11:25:50.443Z,55.36
2022-07-29T11:28:22.731Z,58.16
2022-07-29T11:30:50.507Z,59.90
2022-07-29T11:33:18.209Z,62.28
2022-07-29T11:36:05.422Z,63.61
2022-07-29T11:38:33.259Z,65.83
2022-07-29T11:41:00.499Z,64.70
2022-07-29T11:43:29.583Z,66.49
2022-07-29T11:45:59.468Z,68.35
2022-07-29T11:48:28.846Z,68.12
2022-07-29T11:50:59.159Z,68.82
2022-07-29T11:53:28.922Z,68.60
2022-07-29T11:56:00.026Z,67.73
2022-07-29T11:58:27.295Z,67.38
2022-07-29T12:00:55.737Z,67.92
2022-07-29T12:03:23.425Z,67.72
2022-07-29T12:06:01.487Z,68.45
2022-07-29T12:08:28.756Z,66.82
2022-07-29T12:10:56.012Z,66.71
2022-07-29T12:13:37.100Z,67.36
2022-07-29T12:16:05.335Z,68.80
2022-07-29T12:18:32.734Z,68.54
2022-07-29T12:21:03.621Z,67.93
2022-07-29T12:23:34.446Z,68.20
2022-07-29T12:26:02.659Z,70.25
2022-07-29T12:28:29.914Z,69.64
2022-07-29T12:30:58.214Z,70.49
2022-07-29T12:33:26.633Z,69.67
2022-07-29T12:36:03.821Z,69.23
2022-07-29T12:38:34.363Z,69.69
2022-07-29T12:41:01.629Z,71.94
2022-07-29T12:43:31.890Z,72.56
2022-07-29T12:45:59.164Z,71.58
2022-07-29T12:48:26.442Z,70.80
2022-07-29T12:50:53.727Z,72.25
2022-07-29T12:53:20.983Z,71.68
2022-07-29T12:55:48.227Z,70.17
2022-07-29T12:58:15.493Z,70.39
2022-07-29T13:00:42.767Z,71.10
2022-07-29T13:03:10.065Z,71.24
2022-07-29T13:05:38.342Z,72.15
2022-07-29T13:08:05.610Z,71.39
2022-07-29T13:10:47.755Z,71.38
2022-07-29T13:13:15.019Z,69.31
2022-07-29T13:15:42.276Z,69.72
2022-07-29T13:18:09.546Z,70.45
2022-07-29T13:20:36.805Z,68.53
2022-07-29T13:23:04.066Z,69.39
2022-07-29T13:25:31.343Z,67.78
2022-07-29T13:27:58.596Z,68.28
2022-07-29T13:30:25.878Z,69.63
2022-07-29T13:32:53.159Z,69.29
2022-07-29T13:35:20.434Z,68.12
2022-07-29T13:37:47.702Z,68.62
2022-07-29T13:40:14.966Z,67.18
2022-07-29T13:42:42.210Z,66.67
2022-07-29T13:45:09.457Z,68.27
2022-07-29T13:47:36.731Z,68.40
2022-07-29T13:50:06.164Z,68.01
2022-07-29T13:52:34.202Z,67.65
2022-07-29T13:55:01.464Z,66.72
2022-07-29T13:57:28.706Z,66.76
2022-07-29T13:59:56.214Z,66.09
2022-07-29T14:02:25.433Z,65.56
2022-07-29T14:04:53.459Z,66.10
2022-07-29T14:07:20.751Z,64.91
2022-07-29T14:09:48.029Z,65.53
2022-07-29T14:12:17.289Z,65.60
2022-07-29T14:14:44.555Z,64.92
2022-07-29T14:17:16.562Z,64.46
2022-07-29T14:19:43.937Z,63.21
2022-07-29T14:22:11.188Z,65.55
2022-07-29T14:24:38.989Z,64.28
2022-07-29T14:27:06.369Z,63.69
2022-07-29T14:29:37.331Z,61.65
2022-07-29T14:32:05.638Z,60.26
2022-07-29T14:34:32.927Z,59.66
2022-07-29T14:37:00.167Z,59.83
2022-07-29T14:39:31.675Z,57.41
2022-07-29T14:41:59.965Z,59.59
2022-07-29T14:44:27.657Z,57.88
2022-07-29T14:46:54.913Z,57.97
2022-07-29T14:49:22.322Z,57.28
2022-07-29T14:51:49.614Z,54.45
2022-07-29T14:54:16.866Z,53.57
2022-07-29T14:56:46.799Z,54.85
2022-07-29T14:59:14.406Z,55.77
2022-07-29T15:01:41.740Z,52.99
2022-07-29T15:04:09.021Z,53.83
2022-07-29T15:06:36.256Z,54.36
2022-07-29T15:09:03.525Z,56.34
2022-07-29T15:11:30.769Z,55.38
2022-07-29T15:14:04.297Z,54.45
2022-07-29T15:16:31.622Z,52.97
2022-07-29T15:19:01.229Z,53.07
2022-07-29T15:21:28.749Z,49.32
2022-07-29T15:23:56.121Z,49.39
2022-07-29T15:26:23.378Z,48.46
2022-07-29T15:28:50.635Z,48.95
2022-07-29T15:31:17.941Z,48.87
2022-07-29T15:33:45.217Z,48.88
2022-07-29T15:36:25.470Z,50.63
2022-07-29T15:38:59.674Z,51.25
2022-07-29T15:41:27.493Z,50.81
2022-07-29T15:43:54.749Z,50.47
2022-07-29T15:46:22.088Z,51.44
2022-07-29T15:48:49.431Z,51.31
2022-07-29T15:51:16.802Z,52.25
2022-07-29T15:53:53.697Z,53.17
2022-07-29T15:56:21.119Z,52.17
2022-07-29T15:58:48.352Z,52.50
2022-07-29T16:01:15.650Z,51.60
2022-07-29T16:03:46.069Z,52.58
2022-07-29T16:06:13.665Z,52.06
2022-07-29T16:08:40.907Z,51.43
2022-07-29T16:11:08.161Z,51.53
2022-07-29T16:13:35.419Z,50.95
2022-07-29T16:16:03.219Z,49.19
2022-07-29T16:18:30.736Z,47.08
2022-07-29T16:20:58.086Z,46.38
2022-07-29T16:23:25.326Z,44.64
2022-07-29T16:26:01.126Z,46.31
2022-07-29T16:28:28.699Z,46.17
2022-07-29T16:30:55.956Z,44.75
2022-07-29T16:33:23.214Z,45.15
2022-07-29T16:35:50.472Z,44.72
2022-07-29T16:38:17.733Z,45.00
2022-07-29T16:40:44.986Z,44.10
2022-07-29T16:43:12.230Z,44.99
2022-07-29T16:45:45.360Z,45.28
2022-07-29T16:48:13.577Z,45.76
2022-07-29T16:50:41.495Z,45.09
2022-07-29T16:53:10.848Z,44.06
2022-07-29T16:55:38.080Z,45.73
2022-07-29T16:58:05.336Z,45.90
2022-07-29T17:00:32.640Z,45.55
2022-07-29T17:03:00.007Z,46.33
2022-07-29T17:05:27.294Z,46.20
2022-07-29T17:07:54.559Z,46.09
2022-07-29T17:10:21.792Z,46.59
2022-07-29T17:12:49.057Z,46.62
2022-07-29T17:15:16.292Z,45.68
2022-07-29T17:17:55.055Z,46.68
2022-07-29T17:20:23.725Z,48.59
2022-07-29T17:22:50.982Z,47.57
2022-07-29T17:25:20.773Z,46.94
2022-07-29T17:27:48.656Z,46.28
2022-07-29T17:30:15.931Z,45.53
2022-07-29T17:32:43.170Z,46.07
2022-07-29T17:35:12.432Z,45.95
2022-07-29T17:37:39.676Z,44.19
2022-07-29T17:40:06.922Z,44.35
2022-07-29T17:42:34.183Z,44.78
2022-07-29T17:45:01.464Z,44.21
2022-07-29T17:47:28.934Z,43.39
2022-07-29T17:49:56.189Z,44.16
2022-07-29T17:52:23.424Z,43.84
2022-07-29T17:54:50.778Z,43.91
2022-07-29T17:57:18.036Z,44.22
2022-07-29T17:59:45.384Z,44.47
2022-07-29T18:02:12.742Z,45.21
2022-07-29T18:04:40.147Z,45.70
2022-07-29T18:07:07.390Z,45.74
2022-07-29T18:09:37.853Z,46.04
2022-07-29T18:12:05.219Z,46.22
2022-07-29T18:14:32.464Z,45.77
2022-07-29T18:17:00.084Z,46.88
2022-07-29T18:19:27.621Z,47.14
2022-07-29T18:21:56.570Z,46.98
2022-07-29T18:24:25.898Z,46.80
2022-07-29T18:26:53.237Z,47.25
2022-07-29T18:29:20.475Z,47.15
2022-07-29T18:31:47.758Z,47.88
2022-07-29T18:34:15.094Z,46.98
2022-07-29T18:36:42.340Z,46.74
2022-07-29T18:39:09.599Z,46.64
2022-07-29T18:41:50.448Z,46.85
2022-07-29T18:44:18.254Z,47.39
2022-07-29T18:46:47.388Z,47.47
2022-07-29T18:49:22.800Z,45.75
2022-07-29T18:51:50.156Z,45.43
2022-07-29T18:54:17.504Z,45.20
2022-07-29T18:56:44.834Z,44.64
2022-07-29T18:59:12.107Z,44.76
2022-07-29T19:01:39.444Z,44.88
2022-07-29T19:04:06.765Z,44.21
2022-07-29T19:06:33.996Z,43.91
2022-07-29T19:09:01.254Z,43.82
2022-07-29T19:11:28.512Z,44.77
2022-07-29T19:13:55.747Z,46.71
2022-07-29T19:16:23.002Z,46.60
2022-07-29T19:18:50.412Z,46.90
2022-07-29T19:21:17.665Z,46.56
2022-07-29T19:24:06.438Z,47.30
2022-07-29T19:26:32.132Z,46.56
2022-07-29T19:28:59.396Z,46.25
2022-07-29T19:31:26.707Z,45.76
2022-07-29T19:33:54.007Z,45.37
2022-07-29T19:36:21.354Z,45.44
2022-07-29T19:38:48.597Z,45.53
2022-07-29T19:41:15.850Z,45.19
2022-07-29T19:43:50.887Z,44.84
2022-07-29T19:46:20.089Z,44.84
2022-07-29T19:48:47.551Z,44.66
2022-07-29T19:51:15.097Z,44.85
2022-07-29T19:53:42.355Z,44.66
2022-07-29T19:56:09.611Z,44.56
2022-07-29T19:58:36.876Z,44.81
2022-07-29T20:01:10.116Z,44.47
2022-07-29T20:03:38.142Z,44.78
2022-07-29T20:06:05.384Z,44.71
2022-07-29T20:08:32.646Z,44.37
2022-07-29T20:10:59.985Z,44.42
2022-07-29T20:13:27.243Z,44.13
2022-07-29T20:15:54.532Z,43.97
2022-07-29T20:18:21.800Z,44.12
2022-07-29T20:20:49.154Z,43.84
2022-07-29T20:23:16.388Z,43.92
2022-07-29T20:25:43.645Z,44.20
2022-07-29T20:28:10.930Z,43.93
2022-07-29T20:30:38.491Z,43.97
2022-07-29T20:33:05.980Z,43.64
2022-07-29T20:35:33.236Z,43.52
2022-07-29T20:38:00.478Z,43.39
2022-07-29T20:40:27.752Z,43.24
2022-07-29T20:42:55.070Z,43.80
2022-07-29T20:45:22.429Z,44.17
2022-07-29T20:47:49.670Z,44.15
2022-07-29T20:50:16.912Z,44.04
2022-07-29T20:52:44.167Z,44.22
2022-07-29T20:55:11.497Z,43.81
2022-07-29T20:57:39.978Z,43.60
2022-07-29T21:00:07.442Z,43.50
2022-07-29T21:02:34.790Z,43.41
2022-07-29T21:05:02.082Z,43.29
2022-07-29T21:07:29.333Z,43.80
2022-07-29T21:09:56.590Z,43.72
2022-07-29T21:12:23.828Z,43.28
2022-07-29T21:14:51.130Z,43.01
2022-07-29T21:17:18.378Z,42.64
2022-07-29T21:19:48.502Z,42.35
2022-07-29T21:22:15.781Z,44.31
2022-07-29T21:24:43.021Z,46.02
2022-07-29T21:27:20.120Z,47.63
2022-07-29T21:29:48.276Z,49.24
2022-07-29T21:32:27.582Z,50.87
2022-07-29T21:34:57.517Z,52.00
2022-07-29T21:37:24.764Z,53.35
2022-07-29T21:39:52.016Z,53.12
2022-07-29T21:42:19.300Z,53.75
2022-07-29T21:44:46.546Z,54.57
2022-07-29T21:47:13.791Z,53.75
2022-07-29T21:49:41.087Z,54.75
2022-07-29T21:52:09.077Z,55.69
2022-07-29T21:54:36.367Z,54.90
2022-07-29T21:57:03.913Z,54.49
2022-07-29T21:59:32.146Z,54.89
2022-07-29T22:02:00.368Z,54.44
2022-07-29T22:04:27.681Z,54.74
2022-07-29T22:06:55.004Z,53.24
2022-07-29T22:09:22.247Z,52.30
2022-07-29T22:11:49.501Z,56.02
2022-07-29T22:14:16.760Z,56.45
2022-07-29T22:16:44.033Z,56.89
2022-07-29T22:19:11.660Z,58.36
2022-07-29T22:21:38.932Z,58.09
2022-07-29T22:24:06.177Z,57.14
2022-07-29T22:26:33.417Z,56.56
2022-07-29T22:29:00.706Z,56.21
2022-07-29T22:31:27.942Z,54.62
2022-07-29T22:33:55.214Z,53.48
2022-07-29T22:36:22.494Z,52.09
2022-07-29T22:38:51.984Z,50.97
2022-07-29T22:41:19.477Z,49.80
2022-07-29T22:43:46.733Z,49.15
2022-07-29T22:46:14.036Z,48.59
2022-07-29T22:48:41.401Z,48.52
2022-07-29T22:51:08.687Z,49.27
2022-07-29T22:53:37.333Z,50.82
2022-07-29T22:56:04.611Z,51.42
2022-07-29T22:58:31.892Z,52.28
2022-07-29T23:00:59.141Z,53.11
2022-07-29T23:03:26.529Z,54.94
2022-07-29T23:05:53.869Z,56.14
2022-07-29T23:08:21.142Z,56.78
2022-07-29T23:10:48.384Z,58.11
2022-07-29T23:13:15.635Z,58.00
2022-07-29T23:15:42.912Z,58.61
2022-07-29T23:18:10.151Z,58.83
2022-07-29T23:20:37.400Z,59.05
2022-07-29T23:23:04.665Z,59.00
2022-07-29T23:25:31.897Z,58.75
2022-07-29T23:27:59.131Z,59.00
2022-07-29T23:30:26.434Z,59.66
2022-07-29T23:32:53.745Z,59.94
2022-07-29T23:35:21.023Z,59.60
2022-07-29T23:37:48.265Z,60.08
2022-07-29T23:40:15.536Z,59.10
2022-07-29T23:42:42.846Z,58.70
2022-07-29T23:45:10.098Z,58.56
2022-07-29T23:47:37.350Z,56.84
2022-07-29T23:50:04.607Z,57.11
2022-07-29T23:52:31.853Z,57.41
2022-07-29T23:55:36.609Z,58.99
2022-07-29T23:57:46.297Z,59.45
